sensor_id;sensor_type;location;lat;lon;timestamp;pressure;altitude;pressure_sealevel;temperature;humidity
63097;BME280;49185;42.320;23.198;2022-08-07T00:00:53;94426.97;;;21.35;68.18
63097;BME280;49185;42.320;23.198;2022-08-07T00:03:19;94438.25;;;21.13;69.16
63097;BME280;49185;42.320;23.198;2022-08-07T00:05:44;94427.41;;;21.19;68.76
63097;BME280;49185;42.320;23.198;2022-08-07T00:08:10;94427.66;;;21.30;68.23
63097;BME280;49185;42.320;23.198;2022-08-07T00:10:36;94430.16;;;21.19;68.54
63097;BME280;49185;42.320;23.198;2022-08-07T00:13:03;94439.50;;;21.12;69.02
63097;BME280;49185;42.320;23.198;2022-08-07T00:15:31;94420.59;;;21.14;69.07
63097;BME280;49185;42.320;23.198;2022-08-07T00:17:57;94413.53;;;21.08;69.70
63097;BME280;49185;42.320;23.198;2022-08-07T00:20:23;94428.16;;;21.05;70.06
63097;BME280;49185;42.320;23.198;2022-08-07T00:22:49;94423.09;;;21.12;69.23
63097;BME280;49185;42.320;23.198;2022-08-07T00:25:14;94430.88;;;21.05;69.55
63097;BME280;49185;42.320;23.198;2022-08-07T00:27:40;94441.03;;;20.90;70.60
63097;BME280;49185;42.320;23.198;2022-08-07T00:30:06;94444.06;;;20.92;70.62
63097;BME280;49185;42.320;23.198;2022-08-07T00:32:31;94442.84;;;20.93;70.32
63097;BME280;49185;42.320;23.198;2022-08-07T00:34:57;94436.34;;;21.43;70.17
63097;BME280;49185;42.320;23.198;2022-08-07T00:37:22;94437.91;;;21.79;68.99
63097;BME280;49185;42.320;23.198;2022-08-07T00:39:48;94433.66;;;21.34;69.46
63097;BME280;49185;42.320;23.198;2022-08-07T00:42:13;94429.81;;;21.26;70.83
63097;BME280;49185;42.320;23.198;2022-08-07T00:44:39;94435.84;;;21.30;70.33
63097;BME280;49185;42.320;23.198;2022-08-07T00:47:05;94441.63;;;20.46;74.80
63097;BME280;49185;42.320;23.198;2022-08-07T00:49:31;94435.50;;;20.27;76.53
63097;BME280;49185;42.320;23.198;2022-08-07T00:51:57;94440.88;;;19.80;81.17
63097;BME280;49185;42.320;23.198;2022-08-07T00:54:22;94436.41;;;19.49;83.96
63097;BME280;49185;42.320;23.198;2022-08-07T00:56:49;94433.97;;;19.60;82.87
63097;BME280;49185;42.320;23.198;2022-08-07T00:59:15;94432.94;;;19.30;86.50
63097;BME280;49185;42.320;23.198;2022-08-07T01:01:40;94435.38;;;19.19;87.09
63097;BME280;49185;42.320;23.198;2022-08-07T01:04:07;94441.44;;;19.05;88.58
63097;BME280;49185;42.320;23.198;2022-08-07T01:06:33;94442.06;;;19.00;89.01
63097;BME280;49185;42.320;23.198;2022-08-07T01:08:59;94432.66;;;19.01;89.05
63097;BME280;49185;42.320;23.198;2022-08-07T01:11:25;94450.78;;;19.59;82.58
63097;BME280;49185;42.320;23.198;2022-08-07T01:13:51;94446.88;;;19.93;79.30
63097;BME280;49185;42.320;23.198;2022-08-07T01:16:17;94446.41;;;20.36;76.41
63097;BME280;49185;42.320;23.198;2022-08-07T01:18:42;94440.41;;;20.71;74.60
63097;BME280;49185;42.320;23.198;2022-08-07T01:21:16;94448.34;;;20.84;72.95
63097;BME280;49185;42.320;23.198;2022-08-07T01:23:43;94446.47;;;21.13;71.33
63097;BME280;49185;42.320;23.198;2022-08-07T01:26:11;94439.81;;;21.44;69.79
63097;BME280;49185;42.320;23.198;2022-08-07T01:28:38;94427.66;;;21.60;69.14
63097;BME280;49185;42.320;23.198;2022-08-07T01:31:04;94435.56;;;21.72;68.20
63097;BME280;49185;42.320;23.198;2022-08-07T01:33:30;94427.59;;;22.04;66.84
63097;BME280;49185;42.320;23.198;2022-08-07T01:35:57;94428.69;;;22.27;65.50
63097;BME280;49185;42.320;23.198;2022-08-07T01:38:23;94420.88;;;22.20;65.44
63097;BME280;49185;42.320;23.198;2022-08-07T01:40:49;94433.25;;;22.50;64.43
63097;BME280;49185;42.320;23.198;2022-08-07T01:43:17;94428.25;;;22.48;64.38
63097;BME280;49185;42.320;23.198;2022-08-07T01:45:43;94422.25;;;22.30;65.66
63097;BME280;49185;42.320;23.198;2022-08-07T01:48:08;94425.09;;;22.35;65.65
63097;BME280;49185;42.320;23.198;2022-08-07T01:50:38;94422.63;;;22.37;65.39
63097;BME280;49185;42.320;23.198;2022-08-07T01:53:05;94421.41;;;22.38;65.24
63097;BME280;49185;42.320;23.198;2022-08-07T01:55:49;94418.09;;;22.34;65.38
63097;BME280;49185;42.320;23.198;2022-08-07T01:58:18;94421.88;;;22.02;67.20
63097;BME280;49185;42.320;23.198;2022-08-07T02:00:50;94422.41;;;22.06;67.06
63097;BME280;49185;42.320;23.198;2022-08-07T02:03:19;94428.66;;;22.06;67.31
63097;BME280;49185;42.320;23.198;2022-08-07T02:05:57;94422.41;;;21.91;67.77
63097;BME280;49185;42.320;23.198;2022-08-07T02:08:24;94424.41;;;21.91;68.04
63097;BME280;49185;42.320;23.198;2022-08-07T02:10:51;94425.28;;;21.82;68.57
63097;BME280;49185;42.320;23.198;2022-08-07T02:13:17;94422.69;;;21.93;68.46
63097;BME280;49185;42.320;23.198;2022-08-07T02:15:44;94425.91;;;21.92;68.59
63097;BME280;49185;42.320;23.198;2022-08-07T02:18:12;94426.19;;;21.94;68.38
63097;BME280;49185;42.320;23.198;2022-08-07T02:20:38;94417.13;;;22.17;67.45
63097;BME280;49185;42.320;23.198;2022-08-07T02:23:06;94427.31;;;21.87;68.38
63097;BME280;49185;42.320;23.198;2022-08-07T02:25:33;94435.94;;;21.80;69.16
63097;BME280;49185;42.320;23.198;2022-08-07T02:28:01;94433.19;;;21.80;69.22
63097;BME280;49185;42.320;23.198;2022-08-07T02:30:29;94431.09;;;21.90;68.82
63097;BME280;49185;42.320;23.198;2022-08-07T02:32:56;94422.59;;;21.88;68.33
63097;BME280;49185;42.320;23.198;2022-08-07T02:35:24;94432.97;;;22.13;67.71
63097;BME280;49185;42.320;23.198;2022-08-07T02:37:51;94439.72;;;22.32;67.12
63097;BME280;49185;42.320;23.198;2022-08-07T02:40:17;94430.63;;;22.41;66.87
63097;BME280;49185;42.320;23.198;2022-08-07T02:42:43;94436.94;;;22.47;66.75
63097;BME280;49185;42.320;23.198;2022-08-07T02:45:13;94433.34;;;22.21;67.64
63097;BME280;49185;42.320;23.198;2022-08-07T02:47:39;94443.00;;;22.16;68.25
63097;BME280;49185;42.320;23.198;2022-08-07T02:50:05;94451.84;;;22.26;67.94
63097;BME280;49185;42.320;23.198;2022-08-07T02:52:35;94466.03;;;22.09;68.79
63097;BME280;49185;42.320;23.198;2022-08-07T02:55:17;94469.72;;;22.21;68.36
63097;BME280;49185;42.320;23.198;2022-08-07T02:57:45;94485.38;;;22.21;68.81
63097;BME280;49185;42.320;23.198;2022-08-07T03:00:12;94483.59;;;22.17;68.43
63097;BME280;49185;42.320;23.198;2022-08-07T03:02:40;94487.28;;;22.49;65.65
63097;BME280;49185;42.320;23.198;2022-08-07T03:05:08;94484.81;;;22.87;63.37
63097;BME280;49185;42.320;23.198;2022-08-07T03:07:35;94497.22;;;22.82;63.69
63097;BME280;49185;42.320;23.198;2022-08-07T03:10:02;94498.09;;;22.73;64.47
63097;BME280;49185;42.320;23.198;2022-08-07T03:12:28;94500.31;;;22.55;65.30
63097;BME280;49185;42.320;23.198;2022-08-07T03:14:54;94513.03;;;22.37;67.10
63097;BME280;49185;42.320;23.198;2022-08-07T03:17:21;94512.22;;;22.02;69.41
63097;BME280;49185;42.320;23.198;2022-08-07T03:19:48;94506.81;;;22.07;69.07
63097;BME280;49185;42.320;23.198;2022-08-07T03:22:15;94500.59;;;21.63;71.90
63097;BME280;49185;42.320;23.198;2022-08-07T03:24:41;94523.22;;;21.48;73.31
63097;BME280;49185;42.320;23.198;2022-08-07T03:27:07;94511.47;;;21.33;75.20
63097;BME280;49185;42.320;23.198;2022-08-07T03:29:38;94505.94;;;21.42;75.35
63097;BME280;49185;42.320;23.198;2022-08-07T03:32:07;94493.94;;;21.25;76.16
63097;BME280;49185;42.320;23.198;2022-08-07T03:34:35;94491.78;;;21.44;75.14
63097;BME280;49185;42.320;23.198;2022-08-07T03:37:02;94485.47;;;21.53;73.52
63097;BME280;49185;42.320;23.198;2022-08-07T03:39:30;94485.69;;;21.64;72.54
63097;BME280;49185;42.320;23.198;2022-08-07T03:41:57;94477.56;;;21.69;72.91
63097;BME280;49185;42.320;23.198;2022-08-07T03:44:24;94487.94;;;21.65;73.10
63097;BME280;49185;42.320;23.198;2022-08-07T03:46:50;94483.22;;;21.80;72.92
63097;BME280;49185;42.320;23.198;2022-08-07T03:49:16;94480.38;;;21.75;73.16
63097;BME280;49185;42.320;23.198;2022-08-07T03:51:42;94472.75;;;21.64;74.15
63097;BME280;49185;42.320;23.198;2022-08-07T03:54:08;94470.97;;;21.46;75.25
63097;BME280;49185;42.320;23.198;2022-08-07T03:56:34;94469.63;;;21.57;74.60
63097;BME280;49185;42.320;23.198;2022-08-07T03:59:04;94466.63;;;21.84;73.24
63097;BME280;49185;42.320;23.198;2022-08-07T04:01:31;94473.09;;;21.87;72.76
63097;BME280;49185;42.320;23.198;2022-08-07T04:03:58;94472.53;;;21.97;71.63
63097;BME280;49185;42.320;23.198;2022-08-07T04:06:24;94483.41;;;21.92;71.66
63097;BME280;49185;42.320;23.198;2022-08-07T04:08:50;94469.44;;;21.75;72.52
63097;BME280;49185;42.320;23.198;2022-08-07T04:11:16;94469.91;;;21.88;72.14
63097;BME280;49185;42.320;23.198;2022-08-07T04:13:43;94481.16;;;21.75;73.22
63097;BME280;49185;42.320;23.198;2022-08-07T04:16:10;94478.13;;;21.59;74.31
63097;BME280;49185;42.320;23.198;2022-08-07T04:18:36;94473.88;;;21.58;74.73
63097;BME280;49185;42.320;23.198;2022-08-07T04:21:02;94478.69;;;21.63;74.70
63097;BME280;49185;42.320;23.198;2022-08-07T04:23:29;94483.22;;;21.95;73.40
63097;BME280;49185;42.320;23.198;2022-08-07T04:25:56;94489.56;;;22.51;71.17
63097;BME280;49185;42.320;23.198;2022-08-07T04:28:22;94497.34;;;22.38;71.56
63097;BME280;49185;42.320;23.198;2022-08-07T04:30:48;94494.53;;;22.32;72.78
63097;BME280;49185;42.320;23.198;2022-08-07T04:33:15;94492.34;;;22.22;72.79
63097;BME280;49185;42.320;23.198;2022-08-07T04:35:43;94489.22;;;22.29;72.49
63097;BME280;49185;42.320;23.198;2022-08-07T04:38:09;94477.84;;;22.50;71.36
63097;BME280;49185;42.320;23.198;2022-08-07T04:40:39;94483.28;;;22.65;71.05
63097;BME280;49185;42.320;23.198;2022-08-07T04:43:05;94481.44;;;22.77;70.65
63097;BME280;49185;42.320;23.198;2022-08-07T04:45:52;94491.50;;;22.65;70.67
63097;BME280;49185;42.320;23.198;2022-08-07T04:48:28;94488.13;;;22.76;70.10
63097;BME280;49185;42.320;23.198;2022-08-07T04:51:48;94487.38;;;22.90;69.32
63097;BME280;49185;42.320;23.198;2022-08-07T04:54:21;94492.78;;;23.05;68.37
63097;BME280;49185;42.320;23.198;2022-08-07T04:56:59;94488.06;;;23.31;67.49
63097;BME280;49185;42.320;23.198;2022-08-07T04:59:36;94487.25;;;23.45;65.99
63097;BME280;49185;42.320;23.198;2022-08-07T05:02:07;94484.38;;;25.51;58.97
63097;BME280;49185;42.320;23.198;2022-08-07T05:07:22;94488.31;;;28.95;48.02
63097;BME280;49185;42.320;23.198;2022-08-07T05:09:54;94501.06;;;29.47;45.91
63097;BME280;49185;42.320;23.198;2022-08-07T05:12:28;94502.16;;;29.94;45.26
63097;BME280;49185;42.320;23.198;2022-08-07T05:15:01;94490.31;;;29.94;44.58
63097;BME280;49185;42.320;23.198;2022-08-07T05:17:28;94496.88;;;30.60;42.90
63097;BME280;49185;42.320;23.198;2022-08-07T05:19:55;94498.06;;;30.78;41.65
63097;BME280;49185;42.320;23.198;2022-08-07T05:22:22;94500.44;;;30.42;41.99
63097;BME280;49185;42.320;23.198;2022-08-07T05:24:49;94497.66;;;30.10;43.35
63097;BME280;49185;42.320;23.198;2022-08-07T05:27:16;94500.22;;;30.08;42.96
63097;BME280;49185;42.320;23.198;2022-08-07T05:29:44;94495.31;;;30.14;42.65
63097;BME280;49185;42.320;23.198;2022-08-07T05:32:12;94504.69;;;30.88;41.83
63097;BME280;49185;42.320;23.198;2022-08-07T05:34:39;94497.38;;;31.17;41.12
63097;BME280;49185;42.320;23.198;2022-08-07T05:37:05;94504.75;;;31.75;39.74
63097;BME280;49185;42.320;23.198;2022-08-07T05:39:34;94502.63;;;31.55;39.74
63097;BME280;49185;42.320;23.198;2022-08-07T05:42:00;94503.25;;;32.08;38.52
63097;BME280;49185;42.320;23.198;2022-08-07T05:44:25;94516.22;;;30.79;41.84
63097;BME280;49185;42.320;23.198;2022-08-07T05:46:51;94530.34;;;30.94;39.99
63097;BME280;49185;42.320;23.198;2022-08-07T05:49:18;94507.81;;;31.24;40.03
63097;BME280;49185;42.320;23.198;2022-08-07T05:51:45;94526.72;;;31.26;39.22
63097;BME280;49185;42.320;23.198;2022-08-07T05:54:11;94521.06;;;31.31;39.19
63097;BME280;49185;42.320;23.198;2022-08-07T05:56:39;94526.19;;;32.01;39.00
63097;BME280;49185;42.320;23.198;2022-08-07T05:59:07;94535.00;;;33.17;36.48
63097;BME280;49185;42.320;23.198;2022-08-07T06:01:33;94535.72;;;31.92;38.32
63097;BME280;49185;42.320;23.198;2022-08-07T06:04:00;94539.91;;;32.54;37.35
63097;BME280;49185;42.320;23.198;2022-08-07T06:06:27;94538.91;;;33.14;36.90
63097;BME280;49185;42.320;23.198;2022-08-07T06:08:53;94541.19;;;32.32;36.68
63097;BME280;49185;42.320;23.198;2022-08-07T06:11:19;94548.75;;;33.15;37.12
63097;BME280;49185;42.320;23.198;2022-08-07T06:13:44;94556.59;;;32.54;36.63
63097;BME280;49185;42.320;23.198;2022-08-07T06:16:10;94557.59;;;31.22;38.79
63097;BME280;49185;42.320;23.198;2022-08-07T06:18:38;94554.03;;;30.95;39.88
63097;BME280;49185;42.320;23.198;2022-08-07T06:21:04;94548.06;;;31.57;37.99
63097;BME280;49185;42.320;23.198;2022-08-07T06:23:31;94546.53;;;31.96;37.76
63097;BME280;49185;42.320;23.198;2022-08-07T06:25:57;94552.03;;;33.26;35.71
63097;BME280;49185;42.320;23.198;2022-08-07T06:28:26;94546.28;;;32.62;36.02
63097;BME280;49185;42.320;23.198;2022-08-07T06:30:52;94545.19;;;33.35;34.76
63097;BME280;49185;42.320;23.198;2022-08-07T06:33:18;94548.78;;;33.51;34.47
63097;BME280;49185;42.320;23.198;2022-08-07T06:35:44;94540.44;;;32.94;35.71
63097;BME280;49185;42.320;23.198;2022-08-07T06:38:09;94537.50;;;33.56;37.18
63097;BME280;49185;42.320;23.198;2022-08-07T06:40:50;94532.06;;;33.87;34.51
63097;BME280;49185;42.320;23.198;2022-08-07T06:43:20;94537.47;;;33.49;34.13
63097;BME280;49185;42.320;23.198;2022-08-07T06:45:47;94543.22;;;33.22;35.22
63097;BME280;49185;42.320;23.198;2022-08-07T06:48:13;94527.94;;;33.16;36.29
63097;BME280;49185;42.320;23.198;2022-08-07T07:09:47;94543.63;;;32.35;37.52
63097;BME280;49185;42.320;23.198;2022-08-07T07:20:42;94542.34;;;32.02;37.07
63097;BME280;49185;42.320;23.198;2022-08-07T07:23:10;94538.94;;;31.96;37.57
63097;BME280;49185;42.320;23.198;2022-08-07T07:25:38;94538.28;;;32.58;37.40
63097;BME280;49185;42.320;23.198;2022-08-07T07:28:28;94540.63;;;32.33;37.72
63097;BME280;49185;42.320;23.198;2022-08-07T07:31:04;94538.00;;;31.81;38.26
63097;BME280;49185;42.320;23.198;2022-08-07T07:33:32;94540.59;;;32.13;36.82
63097;BME280;49185;42.320;23.198;2022-08-07T07:36:00;94544.13;;;32.13;36.56
63097;BME280;49185;42.320;23.198;2022-08-07T07:38:27;94552.25;;;32.66;36.35
63097;BME280;49185;42.320;23.198;2022-08-07T07:40:57;94545.72;;;33.05;36.17
63097;BME280;49185;42.320;23.198;2022-08-07T07:43:24;94544.75;;;32.19;36.65
63097;BME280;49185;42.320;23.198;2022-08-07T07:45:51;94542.28;;;32.50;36.29
63097;BME280;49185;42.320;23.198;2022-08-07T07:48:19;94559.91;;;30.92;38.93
63097;BME280;49185;42.320;23.198;2022-08-07T07:50:46;94555.81;;;28.56;43.02
63097;BME280;49185;42.320;23.198;2022-08-07T07:53:14;94562.38;;;28.23;45.20
63097;BME280;49185;42.320;23.198;2022-08-07T07:55:42;94564.75;;;27.45;48.41
63097;BME280;49185;42.320;23.198;2022-08-07T07:58:08;94563.69;;;28.82;46.40
63097;BME280;49185;42.320;23.198;2022-08-07T08:00:34;94556.78;;;29.62;44.46
63097;BME280;49185;42.320;23.198;2022-08-07T08:03:05;94562.50;;;28.66;46.14
63097;BME280;49185;42.320;23.198;2022-08-07T08:05:33;94555.09;;;29.10;45.37
63097;BME280;49185;42.320;23.198;2022-08-07T08:08:00;94559.97;;;28.44;46.68
63097;BME280;49185;42.320;23.198;2022-08-07T08:10:26;94569.63;;;30.53;41.30
63097;BME280;49185;42.320;23.198;2022-08-07T08:12:53;94561.34;;;29.78;42.26
63097;BME280;49185;42.320;23.198;2022-08-07T08:15:19;94572.78;;;28.42;46.21
63097;BME280;49185;42.320;23.198;2022-08-07T08:17:45;94567.25;;;29.26;43.87
63097;BME280;49185;42.320;23.198;2022-08-07T08:20:13;94569.38;;;29.82;43.24
63097;BME280;49185;42.320;23.198;2022-08-07T08:22:42;94578.41;;;28.30;45.95
63097;BME280;49185;42.320;23.198;2022-08-07T08:25:10;94583.34;;;27.44;48.75
63097;BME280;49185;42.320;23.198;2022-08-07T08:27:38;94580.22;;;26.84;50.28
63097;BME280;49185;42.320;23.198;2022-08-07T08:30:06;94585.22;;;26.80;51.46
63097;BME280;49185;42.320;23.198;2022-08-07T08:32:36;94586.25;;;26.60;51.80
63097;BME280;49185;42.320;23.198;2022-08-07T08:35:03;94575.34;;;28.34;49.13
63097;BME280;49185;42.320;23.198;2022-08-07T08:37:33;94568.63;;;30.69;41.23
63097;BME280;49185;42.320;23.198;2022-08-07T08:40:00;94571.03;;;30.92;40.40
63097;BME280;49185;42.320;23.198;2022-08-07T08:42:40;94574.25;;;31.88;39.16
63097;BME280;49185;42.320;23.198;2022-08-07T08:48:14;94581.50;;;28.21;47.81
63097;BME280;49185;42.320;23.198;2022-08-07T08:50:47;94571.34;;;29.44;46.28
63097;BME280;49185;42.320;23.198;2022-08-07T08:56:23;94568.31;;;29.85;43.08
63097;BME280;49185;42.320;23.198;2022-08-07T08:59:01;94574.53;;;30.28;41.18
63097;BME280;49185;42.320;23.198;2022-08-07T09:08:21;94558.88;;;31.48;40.53
63097;BME280;49185;42.320;23.198;2022-08-07T09:11:04;94555.50;;;32.02;39.71
63097;BME280;49185;42.320;23.198;2022-08-07T09:16:07;94557.44;;;32.41;37.33
63097;BME280;49185;42.320;23.198;2022-08-07T09:18:46;94563.56;;;31.79;39.49
63097;BME280;49185;42.320;23.198;2022-08-07T09:24:21;94566.69;;;31.36;38.53
63097;BME280;49185;42.320;23.198;2022-08-07T09:37:37;94537.06;;;32.88;36.68
63097;BME280;49185;42.320;23.198;2022-08-07T09:40:15;94535.97;;;33.48;35.24
63097;BME280;49185;42.320;23.198;2022-08-07T09:45:39;94535.41;;;31.96;36.77
63097;BME280;49185;42.320;23.198;2022-08-07T09:48:26;94550.44;;;31.27;39.77
63097;BME280;49185;42.320;23.198;2022-08-07T09:51:25;94535.66;;;31.58;39.65
63097;BME280;49185;42.320;23.198;2022-08-07T09:53:58;94543.66;;;30.51;41.45
63097;BME280;49185;42.320;23.198;2022-08-07T10:02:00;94522.13;;;31.28;39.50
63097;BME280;49185;42.320;23.198;2022-08-07T10:26:32;94515.03;;;31.54;38.31
63097;BME280;49185;42.320;23.198;2022-08-07T10:40:03;94505.66;;;32.04;34.71
63097;BME280;49185;42.320;23.198;2022-08-07T10:43:00;94511.94;;;32.59;33.08
63097;BME280;49185;42.320;23.198;2022-08-07T10:45:32;94501.38;;;32.65;34.53
63097;BME280;49185;42.320;23.198;2022-08-07T10:51:31;94501.38;;;32.65;34.63
63097;BME280;49185;42.320;23.198;2022-08-07T10:54:18;94502.28;;;32.81;35.42
63097;BME280;49185;42.320;23.198;2022-08-07T11:02:26;94494.00;;;33.25;34.55
63097;BME280;49185;42.320;23.198;2022-08-07T11:05:12;94496.31;;;33.34;34.57
63097;BME280;49185;42.320;23.198;2022-08-07T11:16:37;94481.69;;;33.13;34.18
63097;BME280;49185;42.320;23.198;2022-08-07T11:22:28;94481.47;;;33.83;30.62
63097;BME280;49185;42.320;23.198;2022-08-07T11:28:07;94469.94;;;33.78;32.94
63097;BME280;49185;42.320;23.198;2022-08-07T11:33:48;94493.16;;;32.81;33.56
63097;BME280;49185;42.320;23.198;2022-08-07T11:41:59;94487.13;;;31.59;38.35
63097;BME280;49185;42.320;23.198;2022-08-07T11:44:53;94476.19;;;32.08;36.63
63097;BME280;49185;42.320;23.198;2022-08-07T11:58:20;94487.94;;;30.81;38.98
63097;BME280;49185;42.320;23.198;2022-08-07T12:09:36;94511.16;;;29.01;43.28
63097;BME280;49185;42.320;23.198;2022-08-07T12:15:17;94528.44;;;28.53;44.27
63097;BME280;49185;42.320;23.198;2022-08-07T12:17:48;94538.09;;;28.41;47.05
63097;BME280;49185;42.320;23.198;2022-08-07T12:20:19;94552.16;;;27.55;50.96
63097;BME280;49185;42.320;23.198;2022-08-07T12:23:02;94566.44;;;26.62;54.16
63097;BME280;49185;42.320;23.198;2022-08-07T12:25:35;94575.56;;;25.70;56.99
63097;BME280;49185;42.320;23.198;2022-08-07T12:28:12;94613.75;;;24.40;74.59
63097;BME280;49185;42.320;23.198;2022-08-07T12:30:41;94602.38;;;22.49;92.99
63097;BME280;49185;42.320;23.198;2022-08-07T12:33:14;94604.00;;;21.59;100.00
63097;BME280;49185;42.320;23.198;2022-08-07T12:35:40;94590.91;;;21.39;100.00
63097;BME280;49185;42.320;23.198;2022-08-07T12:38:07;94601.25;;;21.59;100.00
63097;BME280;49185;42.320;23.198;2022-08-07T12:40:35;94595.91;;;21.64;100.00
63097;BME280;49185;42.320;23.198;2022-08-07T12:43:03;94599.00;;;21.72;100.00
63097;BME280;49185;42.320;23.198;2022-08-07T12:48:52;94596.84;;;21.76;100.00
63097;BME280;49185;42.320;23.198;2022-08-07T12:51:37;94599.38;;;22.03;100.00
63097;BME280;49185;42.320;23.198;2022-08-07T12:54:16;94601.53;;;22.29;100.00
63097;BME280;49185;42.320;23.198;2022-08-07T12:56:48;94589.84;;;22.13;100.00
63097;BME280;49185;42.320;23.198;2022-08-07T12:59:22;94601.56;;;21.75;100.00
63097;BME280;49185;42.320;23.198;2022-08-07T13:02:00;94592.38;;;22.02;100.00
63097;BME280;49185;42.320;23.198;2022-08-07T13:13:41;94575.03;;;22.70;100.00
63097;BME280;49185;42.320;23.198;2022-08-07T13:21:52;94570.81;;;23.04;100.00
63097;BME280;49185;42.320;23.198;2022-08-07T13:29:43;94554.69;;;23.98;100.00
63097;BME280;49185;42.320;23.198;2022-08-07T13:32:24;94554.47;;;24.28;100.00
63097;BME280;49185;42.320;23.198;2022-08-07T13:35:10;94558.47;;;24.64;100.00
63097;BME280;49185;42.320;23.198;2022-08-07T13:37:51;94562.25;;;24.66;91.48
63097;BME280;49185;42.320;23.198;2022-08-07T13:40:27;94560.06;;;24.76;94.08
63097;BME280;49185;42.320;23.198;2022-08-07T13:42:56;94556.31;;;24.79;90.06
63097;BME280;49185;42.320;23.198;2022-08-07T13:45:24;94554.56;;;24.76;95.61
63097;BME280;49185;42.320;23.198;2022-08-07T13:47:52;94540.31;;;24.77;94.81
63097;BME280;49185;42.320;23.198;2022-08-07T13:50:23;94538.00;;;24.65;92.81
63097;BME280;49185;42.320;23.198;2022-08-07T13:52:49;94541.09;;;25.26;88.47
63097;BME280;49185;42.320;23.198;2022-08-07T13:55:18;94540.97;;;25.57;85.83
63097;BME280;49185;42.320;23.198;2022-08-07T13:57:48;94546.03;;;25.70;81.97
63097;BME280;49185;42.320;23.198;2022-08-07T14:00:15;94544.56;;;25.15;86.53
63097;BME280;49185;42.320;23.198;2022-08-07T14:02:42;94538.31;;;24.78;84.20
63097;BME280;49185;42.320;23.198;2022-08-07T14:05:11;94540.72;;;25.02;84.40
63097;BME280;49185;42.320;23.198;2022-08-07T14:07:48;94549.13;;;24.87;83.78
63097;BME280;49185;42.320;23.198;2022-08-07T14:10:14;94540.78;;;24.70;85.08
63097;BME280;49185;42.320;23.198;2022-08-07T14:15:34;94527.31;;;24.41;88.71
63097;BME280;49185;42.320;23.198;2022-08-07T14:18:05;94527.06;;;24.76;85.88
63097;BME280;49185;42.320;23.198;2022-08-07T14:20:35;94523.75;;;25.09;82.35
63097;BME280;49185;42.320;23.198;2022-08-07T14:23:17;94515.66;;;25.53;80.79
63097;BME280;49185;42.320;23.198;2022-08-07T14:25:45;94512.88;;;25.48;80.07
63097;BME280;49185;42.320;23.198;2022-08-07T14:28:14;94508.72;;;25.75;79.25
63097;BME280;49185;42.320;23.198;2022-08-07T14:30:46;94512.78;;;25.96;78.60
63097;BME280;49185;42.320;23.198;2022-08-07T14:33:15;94508.78;;;26.08;76.66
63097;BME280;49185;42.320;23.198;2022-08-07T14:35:41;94508.78;;;26.08;78.25
63097;BME280;49185;42.320;23.198;2022-08-07T14:38:08;94515.53;;;26.13;78.43
63097;BME280;49185;42.320;23.198;2022-08-07T14:40:36;94515.25;;;25.88;81.15
63097;BME280;49185;42.320;23.198;2022-08-07T14:43:12;94516.44;;;25.59;80.44
63097;BME280;49185;42.320;23.198;2022-08-07T14:45:49;94518.72;;;25.67;81.97
63097;BME280;49185;42.320;23.198;2022-08-07T14:48:20;94520.53;;;25.92;82.93
63097;BME280;49185;42.320;23.198;2022-08-07T14:50:50;94506.78;;;26.14;79.23
63097;BME280;49185;42.320;23.198;2022-08-07T14:53:18;94493.25;;;26.39;73.14
63097;BME280;49185;42.320;23.198;2022-08-07T14:55:46;94492.75;;;26.35;71.27
63097;BME280;49185;42.320;23.198;2022-08-07T14:58:13;94489.72;;;26.10;73.54
63097;BME280;49185;42.320;23.198;2022-08-07T15:00:49;94485.97;;;26.13;69.48
63097;BME280;49185;42.320;23.198;2022-08-07T15:03:16;94490.47;;;26.11;68.99
63097;BME280;49185;42.320;23.198;2022-08-07T15:05:46;94487.22;;;25.96;69.63
63097;BME280;49185;42.320;23.198;2022-08-07T15:08:12;94483.69;;;25.84;69.01
63097;BME280;49185;42.320;23.198;2022-08-07T15:10:39;94494.59;;;25.45;71.21
63097;BME280;49185;42.320;23.198;2022-08-07T15:13:16;94498.94;;;25.68;70.43
63097;BME280;49185;42.320;23.198;2022-08-07T15:15:49;94496.19;;;25.68;69.16
63097;BME280;49185;42.320;23.198;2022-08-07T15:18:21;94496.69;;;25.67;70.81
63097;BME280;49185;42.320;23.198;2022-08-07T15:20:50;94501.47;;;25.77;68.54
63097;BME280;49185;42.320;23.198;2022-08-07T15:23:24;94499.00;;;26.07;66.19
63097;BME280;49185;42.320;23.198;2022-08-07T15:25:57;94491.00;;;26.48;65.23
63097;BME280;49185;42.320;23.198;2022-08-07T15:28:26;94485.47;;;26.43;63.15
63097;BME280;49185;42.320;23.198;2022-08-07T15:30:56;94487.72;;;26.39;62.76
63097;BME280;49185;42.320;23.198;2022-08-07T15:33:24;94487.44;;;26.59;62.16
63097;BME280;49185;42.320;23.198;2022-08-07T15:35:52;94497.22;;;26.60;61.04
63097;BME280;49185;42.320;23.198;2022-08-07T15:38:38;94500.44;;;26.98;60.68
63097;BME280;49185;42.320;23.198;2022-08-07T15:41:16;94500.19;;;26.84;62.43
63097;BME280;49185;42.320;23.198;2022-08-07T15:44:00;94500.47;;;26.70;63.72
63097;BME280;49185;42.320;23.198;2022-08-07T15:46:28;94501.19;;;26.81;63.92
63097;BME280;49185;42.320;23.198;2022-08-07T15:48:55;94498.91;;;27.02;63.18
63097;BME280;49185;42.320;23.198;2022-08-07T15:51:24;94500.03;;;26.32;68.08
63097;BME280;49185;42.320;23.198;2022-08-07T15:53:54;94512.28;;;25.98;68.06
63097;BME280;49185;42.320;23.198;2022-08-07T15:56:41;94510.00;;;25.85;66.06
63097;BME280;49185;42.320;23.198;2022-08-07T15:59:10;94514.25;;;25.86;67.29
63097;BME280;49185;42.320;23.198;2022-08-07T16:01:40;94516.25;;;25.85;67.65
63097;BME280;49185;42.320;23.198;2022-08-07T16:04:13;94510.72;;;25.80;68.40
63097;BME280;49185;42.320;23.198;2022-08-07T16:06:49;94509.25;;;25.90;68.59